Airport ID:1G3
Update Time (UTC):04/03/2024 05:42
Wind Speed (Knots):1
Wind Direction (Magnetic):150
Temperature (°C):8
Dew Point (°C):7
Humidity (%):99
Altimeter (inHg):30.1
Density Altitude (Feet):
Visibility:10+
Clouds (Hundreds of feet):***
Present Weather:
METAR:METAR 1G3 040540Z AUTO 00000KT 10SM 08/07 A3010 RMK A01

The data displayed is for advisory purposes only and is not to be used for flight planning or operations.